Time;durP1;ratioP1;P1;durP2;ratioP2;P2;SDS_P1;SDS_P2;PMS_P1;PMS_P2;Temp;Humidity;BMP_temperature;BMP_pressure;BME280_temperature;BME280_humidity;BME280_pressure;Samples;Min_cycle;Max_cycle;Signal;HPM_P1;HPM_P2
2022/04/18 00:00:44;;;;;;;;;;;5.10;99.90;;;;;;5044936;28;20139;-66
2022/04/18 00:03:11;;;;;;;;;;;5.10;99.90;;;;;;5044515;28;19921;-67
2022/04/18 00:05:38;;;;;;;;;;;5.10;99.90;;;;;;5044145;28;19927;-67
2022/04/18 00:08:06;;;;;;;;;;;5.10;99.90;;;;;;5044696;28;19925;-66
2022/04/18 00:10:32;;;;;;;;;;;5.00;99.90;;;;;;5044400;28;19927;-67
2022/04/18 00:12:59;;;;;;;;;;;5.00;99.90;;;;;;5044561;28;19921;-67
2022/04/18 00:15:26;;;;;;;;;;;4.90;99.90;;;;;;5043947;28;19922;-67
2022/04/18 00:17:52;;;;;;;;;;;4.90;99.90;;;;;;5044220;28;19921;-67
2022/04/18 00:20:19;;;;;;;;;;;4.90;99.90;;;;;;5044242;28;19928;-66
2022/04/18 00:22:45;;;;;;;;;;;4.80;99.90;;;;;;5044555;28;19927;-67
2022/04/18 00:25:14;;;;;;;;;;;4.80;99.90;;;;;;5043589;28;19928;-67
2022/04/18 00:27:41;;;;;;;;;;;4.80;99.90;;;;;;5044192;28;19929;-67
2022/04/18 00:30:08;;;;;;;;;;;4.60;99.90;;;;;;5043972;28;19958;-67
2022/04/18 00:32:35;;;;;;;;;;;4.50;99.90;;;;;;5044054;28;19921;-67
2022/04/18 00:35:02;;;;;;;;;;;4.40;99.90;;;;;;5044081;28;19929;-66
2022/04/18 00:37:29;;;;;;;;;;;4.40;99.90;;;;;;5043850;28;19925;-67
2022/04/18 00:39:55;;;;;;;;;;;4.40;99.90;;;;;;5044017;28;20093;-67
2022/04/18 00:42:23;;;;;;;;;;;4.40;99.90;;;;;;5044043;28;19943;-66
2022/04/18 00:44:50;;;;;;;;;;;4.30;99.90;;;;;;5043661;28;19921;-66
2022/04/18 00:47:16;;;;;;;;;;;4.30;99.90;;;;;;5043416;28;19927;-67
2022/04/18 00:49:43;;;;;;;;;;;4.30;99.90;;;;;;5043151;28;19989;-67
2022/04/18 00:52:10;;;;;;;;;;;4.30;99.90;;;;;;5043474;28;20208;-66
2022/04/18 00:54:36;;;;;;;;;;;4.40;99.90;;;;;;5043366;28;19927;-67
2022/04/18 00:57:03;;;;;;;;;;;4.40;99.90;;;;;;5043370;28;20209;-67
2022/04/18 00:59:32;;;;;;;;;;;4.30;99.90;;;;;;5043883;28;19921;-67
2022/04/18 01:01:58;;;;;;;;;;;4.30;99.90;;;;;;5043462;28;19952;-67
2022/04/18 01:04:25;;;;;;;;;;;4.30;99.90;;;;;;5043910;28;19928;-67
2022/04/18 01:06:52;;;;;;;;;;;4.10;99.90;;;;;;5067986;22;19927;-66
2022/04/18 01:09:19;;;;;;;;;;;4.10;99.90;;;;;;5063386;28;19927;-67
2022/04/18 01:11:46;;;;;;;;;;;4.00;99.90;;;;;;5063273;28;19921;-67
2022/04/18 01:14:12;;;;;;;;;;;4.00;99.90;;;;;;5063138;28;19925;-67
2022/04/18 01:16:40;;;;;;;;;;;4.00;99.90;;;;;;5062087;28;20131;-66
2022/04/18 01:19:07;;;;;;;;;;;4.00;99.90;;;;;;5063311;28;19920;-67
2022/04/18 01:21:35;;;;;;;;;;;4.00;99.90;;;;;;5063131;28;19956;-67
2022/04/18 01:28:58;;;;;;;;;;;3.90;99.90;;;;;;5062681;28;20131;-67
2022/04/18 01:29:33;;;;;;;;;;;3.90;99.90;;;;;;5062955;28;19924;-67
2022/04/18 01:32:00;;;;;;;;;;;3.80;99.90;;;;;;5062987;28;19920;-66
2022/04/18 01:34:26;;;;;;;;;;;3.90;99.90;;;;;;5063304;28;19927;-67
2022/04/18 01:36:54;;;;;;;;;;;3.90;99.90;;;;;;5062500;28;19921;-66
2022/04/18 01:39:21;;;;;;;;;;;3.90;99.90;;;;;;5062814;28;19921;-66
2022/04/18 01:41:47;;;;;;;;;;;3.90;99.90;;;;;;5062225;28;19928;-67
2022/04/18 01:44:14;;;;;;;;;;;3.90;99.90;;;;;;5063091;28;19921;-66
2022/04/18 01:46:40;;;;;;;;;;;3.90;99.90;;;;;;5062740;28;19928;-67
2022/04/18 01:49:07;;;;;;;;;;;3.80;99.90;;;;;;5063088;28;20223;-68
2022/04/18 01:51:35;;;;;;;;;;;3.70;99.90;;;;;;5062304;28;19921;-66
2022/04/18 01:54:02;;;;;;;;;;;3.70;99.90;;;;;;5062608;28;20223;-66
2022/04/18 01:56:29;;;;;;;;;;;3.60;99.90;;;;;;5062655;28;19921;-67
2022/04/18 01:58:55;;;;;;;;;;;3.50;99.90;;;;;;5062888;28;19927;-66
2022/04/18 02:01:22;;;;;;;;;;;3.50;99.90;;;;;;5062811;28;20097;-67
2022/04/18 02:03:49;;;;;;;;;;;3.40;99.90;;;;;;5062966;28;19921;-66
2022/04/18 02:06:15;;;;;;;;;;;3.40;99.90;;;;;;5063495;28;19928;-66
2022/04/18 02:08:42;;;;;;;;;;;3.40;99.90;;;;;;5066473;28;19921;-67
2022/04/18 02:11:10;;;;;;;;;;;3.40;99.90;;;;;;5066829;28;19924;-67
2022/04/18 02:13:36;;;;;;;;;;;3.40;99.90;;;;;;5066650;28;19920;-66
2022/04/18 02:16:04;;;;;;;;;;;3.40;99.90;;;;;;5065491;28;19920;-67
2022/04/18 02:18:31;;;;;;;;;;;3.40;99.90;;;;;;5066263;28;20263;-67
2022/04/18 02:20:57;;;;;;;;;;;3.30;99.90;;;;;;5066681;28;19925;-67
2022/04/18 02:23:24;;;;;;;;;;;3.30;99.90;;;;;;5066061;28;19925;-67
2022/04/18 02:25:50;;;;;;;;;;;3.30;99.90;;;;;;5065765;28;19952;-66
2022/04/18 02:28:18;;;;;;;;;;;3.30;99.90;;;;;;5066256;28;19929;-66
2022/04/18 02:30:45;;;;;;;;;;;3.30;99.90;;;;;;5066218;28;19929;-67
2022/04/18 02:33:11;;;;;;;;;;;3.30;99.90;;;;;;5066301;28;19925;-66
2022/04/18 02:35:38;;;;;;;;;;;3.30;99.90;;;;;;5065558;28;19927;-67
2022/04/18 02:38:05;;;;;;;;;;;3.20;99.90;;;;;;5066106;28;20105;-67
2022/04/18 02:40:31;;;;;;;;;;;3.30;99.90;;;;;;5065908;28;20154;-67
2022/04/18 02:42:58;;;;;;;;;;;3.20;99.90;;;;;;5066089;28;20147;-67
2022/04/18 02:45:27;;;;;;;;;;;3.20;99.90;;;;;;5065577;28;19921;-67
2022/04/18 02:47:53;;;;;;;;;;;3.20;99.90;;;;;;5065741;28;19920;-67
2022/04/18 02:50:20;;;;;;;;;;;3.10;99.90;;;;;;5065079;28;19929;-67
2022/04/18 02:52:47;;;;;;;;;;;3.10;99.90;;;;;;5065890;28;19925;-67
2022/04/18 02:55:13;;;;;;;;;;;3.00;99.90;;;;;;5065451;28;19921;-66
2022/04/18 02:57:40;;;;;;;;;;;3.00;99.90;;;;;;5065481;28;19921;-66
2022/04/18 03:00:08;;;;;;;;;;;3.00;99.90;;;;;;5065472;28;19921;-66
2022/04/18 03:02:36;;;;;;;;;;;3.00;99.90;;;;;;5065509;28;19921;-67
2022/04/18 03:05:02;;;;;;;;;;;3.00;99.90;;;;;;5065113;28;20216;-67
2022/04/18 03:07:29;;;;;;;;;;;3.10;99.90;;;;;;5065207;28;20208;-67
2022/04/18 03:09:55;;;;;;;;;;;3.00;99.90;;;;;;5065469;28;20119;-67
2022/04/18 03:12:22;;;;;;;;;;;3.00;99.90;;;;;;5065825;28;19921;-67
2022/04/18 03:14:49;;;;;;;;;;;2.90;99.90;;;;;;5065080;28;19921;-67
2022/04/18 03:17:16;;;;;;;;;;;2.80;99.90;;;;;;5064243;28;19927;-67
2022/04/18 03:19:43;;;;;;;;;;;2.80;99.90;;;;;;5065383;28;20181;-67
2022/04/18 03:22:10;;;;;;;;;;;2.80;99.90;;;;;;5065147;28;19920;-66
2022/04/18 03:24:37;;;;;;;;;;;2.80;99.90;;;;;;5065070;28;20023;-67
2022/04/18 03:27:04;;;;;;;;;;;2.80;99.90;;;;;;5064867;28;20112;-68
2022/04/18 03:29:31;;;;;;;;;;;2.60;99.90;;;;;;5065014;28;19921;-67
2022/04/18 03:31:57;;;;;;;;;;;2.60;99.90;;;;;;5064814;28;20230;-66
2022/04/18 03:34:25;;;;;;;;;;;2.60;99.90;;;;;;5065139;28;19948;-66
2022/04/18 03:39:52;;;;;;;;;;;2.60;99.90;;;;;;5064905;28;19931;-67
2022/04/18 03:42:19;;;;;;;;;;;2.60;99.90;;;;;;5064649;28;20222;-66
2022/04/18 03:44:47;;;;;;;;;;;2.50;99.90;;;;;;5064385;28;20120;-67
2022/04/18 03:47:14;;;;;;;;;;;2.50;99.90;;;;;;5064370;28;20246;-67
2022/04/18 03:49:41;;;;;;;;;;;2.50;99.90;;;;;;5064606;28;19921;-67
2022/04/18 03:52:09;;;;;;;;;;;2.50;99.90;;;;;;5063477;28;19988;-67
2022/04/18 03:54:36;;;;;;;;;;;2.50;99.90;;;;;;5064531;28;20140;-67
2022/04/18 03:57:02;;;;;;;;;;;2.40;99.90;;;;;;5063929;28;19929;-67
2022/04/18 03:59:29;;;;;;;;;;;2.40;99.90;;;;;;5064547;28;19921;-67
2022/04/18 04:01:56;;;;;;;;;;;2.40;99.90;;;;;;5064550;28;19928;-67
2022/04/18 04:04:22;;;;;;;;;;;2.30;99.90;;;;;;5064404;28;19921;-66
2022/04/18 04:06:49;;;;;;;;;;;2.30;99.90;;;;;;5063814;28;19925;-67
2022/04/18 04:09:17;;;;;;;;;;;2.30;99.90;;;;;;5064047;28;19920;-67
2022/04/18 04:11:44;;;;;;;;;;;2.20;99.90;;;;;;5064427;28;19933;-66
2022/04/18 04:14:10;;;;;;;;;;;2.20;99.90;;;;;;5063993;28;19927;-67
2022/04/18 04:16:38;;;;;;;;;;;2.20;99.90;;;;;;5063773;28;19929;-66
2022/04/18 04:19:05;;;;;;;;;;;2.20;99.90;;;;;;5064090;28;19921;-66
2022/04/18 04:21:31;;;;;;;;;;;2.20;99.90;;;;;;5064428;28;19921;-66
2022/04/18 04:23:58;;;;;;;;;;;2.20;99.90;;;;;;5063779;28;19927;-67
2022/04/18 04:26:26;;;;;;;;;;;2.20;99.90;;;;;;5063718;28;19920;-67
2022/04/18 04:28:52;;;;;;;;;;;2.20;99.90;;;;;;5063069;28;19921;-66
2022/04/18 04:31:19;;;;;;;;;;;2.20;99.90;;;;;;5063741;28;19927;-67
2022/04/18 04:33:45;;;;;;;;;;;2.20;99.90;;;;;;5063681;28;20216;-67
2022/04/18 04:36:12;;;;;;;;;;;2.20;99.90;;;;;;5063376;28;19928;-68
2022/04/18 04:38:39;;;;;;;;;;;2.10;99.90;;;;;;5063461;28;20324;-67
2022/04/18 04:41:05;;;;;;;;;;;2.00;99.90;;;;;;5064022;28;19927;-66
2022/04/18 04:43:33;;;;;;;;;;;2.00;99.90;;;;;;5063151;28;19921;-66
2022/04/18 04:46:01;;;;;;;;;;;2.20;99.90;;;;;;5063451;28;19924;-66
2022/04/18 04:48:27;;;;;;;;;;;1.90;99.90;;;;;;5063499;28;19920;-67
2022/04/18 04:50:54;;;;;;;;;;;1.90;99.90;;;;;;5062183;28;20038;-67
2022/04/18 04:53:20;;;;;;;;;;;1.80;99.90;;;;;;5063345;28;20182;-67
2022/04/18 04:55:47;;;;;;;;;;;1.80;99.90;;;;;;5063047;28;19920;-67
2022/04/18 04:58:14;;;;;;;;;;;1.80;99.90;;;;;;5063619;28;19927;-66
2022/04/18 05:00:43;;;;;;;;;;;1.80;99.90;;;;;;5063303;28;19967;-66
2022/04/18 05:03:10;;;;;;;;;;;1.80;99.90;;;;;;5063288;28;19959;-67
2022/04/18 05:05:36;;;;;;;;;;;1.80;99.90;;;;;;5062930;28;19927;-66
2022/04/18 05:08:03;;;;;;;;;;;1.80;99.90;;;;;;5063408;28;19929;-67
2022/04/18 05:10:29;;;;;;;;;;;1.80;99.90;;;;;;5063128;28;20234;-67
2022/04/18 05:12:56;;;;;;;;;;;1.90;99.90;;;;;;5063441;28;20104;-67
2022/04/18 05:15:22;;;;;;;;;;;1.90;99.90;;;;;;5062759;28;19927;-67
2022/04/18 05:17:50;;;;;;;;;;;2.00;99.90;;;;;;5063084;28;19921;-67
2022/04/18 05:20:17;;;;;;;;;;;2.00;99.90;;;;;;5063092;28;19925;-67
2022/04/18 05:22:44;;;;;;;;;;;2.10;99.90;;;;;;5063313;28;19948;-67
2022/04/18 05:25:10;;;;;;;;;;;2.10;99.90;;;;;;5063010;28;19927;-67
2022/04/18 05:27:37;;;;;;;;;;;2.20;99.90;;;;;;5063007;28;19921;-66
2022/04/18 05:30:04;;;;;;;;;;;2.20;99.90;;;;;;5062908;28;20254;-66
2022/04/18 05:32:31;;;;;;;;;;;2.30;99.90;;;;;;5062983;28;19927;-67
2022/04/18 05:34:59;;;;;;;;;;;2.40;99.90;;;;;;5062809;28;19983;-66
2022/04/18 05:37:26;;;;;;;;;;;2.50;99.90;;;;;;5062652;28;20208;-66
2022/04/18 05:39:52;;;;;;;;;;;2.50;99.90;;;;;;5063335;28;19924;-67
2022/04/18 05:42:22;;;;;;;;;;;2.60;99.90;;;;;;5066546;28;19928;-67
2022/04/18 05:44:48;;;;;;;;;;;2.70;99.90;;;;;;5066817;28;19928;-66
2022/04/18 05:47:15;;;;;;;;;;;2.70;99.90;;;;;;5066865;28;19921;-67
2022/04/18 05:49:41;;;;;;;;;;;2.90;99.90;;;;;;5066220;28;19927;-67
2022/04/18 05:52:09;;;;;;;;;;;2.90;99.90;;;;;;5066404;28;19925;-67
2022/04/18 05:54:37;;;;;;;;;;;3.00;99.90;;;;;;5066942;28;19925;-67
2022/04/18 05:57:06;;;;;;;;;;;3.10;99.90;;;;;;5066260;28;19943;-66
2022/04/18 05:59:33;;;;;;;;;;;3.10;99.90;;;;;;5066579;28;19967;-67
2022/04/18 06:01:59;;;;;;;;;;;3.20;99.90;;;;;;5066480;28;20221;-67
2022/04/18 06:04:26;;;;;;;;;;;3.30;99.90;;;;;;5066349;28;20120;-67
2022/04/18 06:06:52;;;;;;;;;;;3.30;99.90;;;;;;5066099;28;20143;-67
2022/04/18 06:09:20;;;;;;;;;;;3.40;99.90;;;;;;5066411;28;19927;-67
2022/04/18 06:11:47;;;;;;;;;;;3.50;99.90;;;;;;5066461;28;19920;-67
2022/04/18 06:14:13;;;;;;;;;;;3.60;99.90;;;;;;5066472;28;20215;-67
2022/04/18 06:16:40;;;;;;;;;;;3.70;99.90;;;;;;5065745;28;19920;-67
2022/04/18 06:19:07;;;;;;;;;;;3.80;99.90;;;;;;5066559;28;19928;-67
2022/04/18 06:21:33;;;;;;;;;;;3.80;99.90;;;;;;5066501;28;19925;-66
2022/04/18 06:24:00;;;;;;;;;;;3.90;99.90;;;;;;5065254;28;19921;-67
2022/04/18 06:26:28;;;;;;;;;;;4.00;99.90;;;;;;5065972;28;20101;-67
2022/04/18 06:28:57;;;;;;;;;;;4.10;99.90;;;;;;5066044;28;19966;-67
2022/04/18 06:31:24;;;;;;;;;;;4.20;99.90;;;;;;5066287;28;19921;-67
2022/04/18 06:33:50;;;;;;;;;;;4.30;99.90;;;;;;5066100;28;19924;-67
2022/04/18 06:36:17;;;;;;;;;;;4.30;99.90;;;;;;5065886;28;20116;-67
2022/04/18 06:38:43;;;;;;;;;;;4.40;99.90;;;;;;5065894;28;19921;-67
2022/04/18 06:41:10;;;;;;;;;;;4.50;99.90;;;;;;5066442;28;19951;-67
2022/04/18 06:43:38;;;;;;;;;;;4.70;99.90;;;;;;5065894;28;19927;-67
2022/04/18 06:46:04;;;;;;;;;;;4.80;99.90;;;;;;5065958;28;19927;-67
2022/04/18 06:48:31;;;;;;;;;;;4.90;99.90;;;;;;5065908;28;19920;-67
2022/04/18 06:50:58;;;;;;;;;;;5.10;99.90;;;;;;5064732;28;19987;-67
2022/04/18 06:53:25;;;;;;;;;;;5.20;99.90;;;;;;5064845;28;19928;-67
2022/04/18 06:58:35;;;;;;;;;;;5.50;99.90;;;;;;5065632;28;20254;-67
2022/04/18 07:01:03;;;;;;;;;;;5.70;99.90;;;;;;5065689;28;20123;-67
2022/04/18 07:03:30;;;;;;;;;;;5.80;99.90;;;;;;5065903;28;19927;-67
2022/04/18 07:05:56;;;;;;;;;;;5.90;99.90;;;;;;5072313;23;19927;-67
2022/04/18 07:08:23;;;;;;;;;;;6.00;99.90;;;;;;5065535;28;19920;-67
2022/04/18 07:10:50;;;;;;;;;;;6.20;99.90;;;;;;5065818;28;19921;-67
2022/04/18 07:13:16;;;;;;;;;;;6.30;99.90;;;;;;5065412;28;20208;-67
2022/04/18 07:15:43;;;;;;;;;;;6.50;99.90;;;;;;5064646;28;19924;-66
2022/04/18 07:18:11;;;;;;;;;;;6.60;99.90;;;;;;5065205;28;19921;-67
2022/04/18 07:20:39;;;;;;;;;;;6.70;99.90;;;;;;5065336;28;19927;-67
2022/04/18 07:23:07;;;;;;;;;;;6.80;99.90;;;;;;5063527;28;20353;-67
2022/04/18 07:25:33;;;;;;;;;;;6.90;99.90;;;;;;5064198;28;19927;-66
2022/04/18 07:28:00;;;;;;;;;;;7.00;99.90;;;;;;5065172;28;19948;-67
2022/04/18 07:30:30;;;;;;;;;;;7.10;99.90;;;;;;5064969;28;19928;-67
2022/04/18 07:32:56;;;;;;;;;;;7.20;99.90;;;;;;5065011;28;19943;-67
2022/04/18 07:35:24;;;;;;;;;;;7.30;99.90;;;;;;5064678;28;20101;-66
2022/04/18 07:40:42;;;;;;;;;;;7.50;99.90;;;;;;5065110;28;19924;-67
2022/04/18 07:43:08;;;;;;;;;;;7.60;99.90;;;;;;5064988;28;19967;-67
2022/04/18 07:45:36;;;;;;;;;;;7.70;99.90;;;;;;5064572;28;19921;-67
2022/04/18 07:48:03;;;;;;;;;;;7.80;99.90;;;;;;5064851;28;19987;-67
2022/04/18 07:53:11;;;;;;;;;;;8.00;99.90;;;;;;5064233;28;19927;-67
2022/04/18 07:55:38;;;;;;;;;;;8.10;99.90;;;;;;5064174;28;19927;-67
2022/04/18 07:58:05;;;;;;;;;;;8.10;99.90;;;;;;5064691;28;19921;-67
2022/04/18 08:00:31;;;;;;;;;;;8.20;99.90;;;;;;5064416;28;20216;-67
2022/04/18 08:02:58;;;;;;;;;;;8.30;99.90;;;;;;5064416;28;20200;-68
2022/04/18 08:05:24;;;;;;;;;;;8.30;99.90;;;;;;5064205;28;20250;-67
2022/04/18 08:07:52;;;;;;;;;;;8.50;99.90;;;;;;5064617;28;19921;-67
2022/04/18 08:10:19;;;;;;;;;;;8.60;99.90;;;;;;5064397;28;19935;-67
2022/04/18 08:12:45;;;;;;;;;;;8.60;99.90;;;;;;5064309;28;19921;-67
2022/04/18 08:15:12;;;;;;;;;;;8.70;99.90;;;;;;5063904;28;19920;-67
2022/04/18 08:17:39;;;;;;;;;;;8.80;99.90;;;;;;5064043;28;19921;-67
2022/04/18 08:20:06;;;;;;;;;;;9.00;99.90;;;;;;5064022;28;20123;-67
2022/04/18 08:22:32;;;;;;;;;;;9.00;99.90;;;;;;5064162;28;19987;-65
2022/04/18 08:25:00;;;;;;;;;;;9.20;99.90;;;;;;5063202;28;19921;-67
2022/04/18 08:27:28;;;;;;;;;;;9.20;99.90;;;;;;5063938;28;20213;-67
2022/04/18 08:29:54;;;;;;;;;;;9.30;99.90;;;;;;5063852;28;20194;-67
2022/04/18 08:32:21;;;;;;;;;;;9.40;99.90;;;;;;5064094;28;19929;-67
2022/04/18 08:34:47;;;;;;;;;;;9.50;99.90;;;;;;5063959;28;19927;-66
2022/04/18 08:37:15;;;;;;;;;;;9.60;99.90;;;;;;5063496;28;19921;-67
2022/04/18 08:39:42;;;;;;;;;;;9.70;99.90;;;;;;5063989;28;19927;-67
2022/04/18 08:42:12;;;;;;;;;;;9.70;99.90;;;;;;5063164;28;19920;-67
2022/04/18 08:44:38;;;;;;;;;;;9.80;99.90;;;;;;5063726;28;19935;-67
2022/04/18 08:47:05;;;;;;;;;;;9.90;99.50;;;;;;5063642;28;20116;-67
2022/04/18 08:55:00;;;;;;;;;;;10.10;99.00;;;;;;5063829;28;20170;-67
2022/04/18 08:57:29;;;;;;;;;;;10.10;98.40;;;;;;5063162;28;19921;-67
2022/04/18 08:59:56;;;;;;;;;;;10.20;98.40;;;;;;5063478;28;19927;-67
2022/04/18 09:02:22;;;;;;;;;;;10.30;98.00;;;;;;5063393;28;20122;-67
2022/04/18 09:04:49;;;;;;;;;;;10.30;98.10;;;;;;5063383;28;19943;-67
2022/04/18 09:07:16;;;;;;;;;;;10.30;98.60;;;;;;5062778;28;19921;-67
2022/04/18 09:09:43;;;;;;;;;;;10.30;96.70;;;;;;5063380;28;19984;-67
2022/04/18 09:12:18;;;;;;;;;;;10.30;96.90;;;;;;5063498;28;20123;-67
2022/04/18 09:14:48;;;;;;;;;;;10.40;97.90;;;;;;5062797;28;19956;-67
2022/04/18 09:17:27;;;;;;;;;;;10.50;98.00;;;;;;5062353;28;19956;-67
2022/04/18 09:20:03;;;;;;;;;;;10.60;96.10;;;;;;5063089;28;19931;-67
2022/04/18 09:22:29;;;;;;;;;;;10.70;96.40;;;;;;5063347;28;19956;-67
2022/04/18 09:24:56;;;;;;;;;;;10.80;96.50;;;;;;5063170;28;19927;-67
2022/04/18 09:27:27;;;;;;;;;;;10.90;96.80;;;;;;5062859;28;19928;-67
2022/04/18 09:30:03;;;;;;;;;;;11.00;97.20;;;;;;5063058;28;19924;-67
2022/04/18 09:32:30;;;;;;;;;;;11.10;96.70;;;;;;5063023;28;19928;-67
2022/04/18 09:34:59;;;;;;;;;;;11.10;96.20;;;;;;5062989;28;19921;-67
2022/04/18 09:37:28;;;;;;;;;;;11.20;96.60;;;;;;5062847;28;19921;-67
2022/04/18 09:39:55;;;;;;;;;;;11.20;95.60;;;;;;5062804;28;20234;-67
2022/04/18 09:42:24;;;;;;;;;;;11.40;96.80;;;;;;5062888;28;19921;-67
2022/04/18 09:44:51;;;;;;;;;;;11.40;95.80;;;;;;5062777;28;19920;-67
2022/04/18 09:47:20;;;;;;;;;;;11.40;96.20;;;;;;5062800;28;19985;-67
2022/04/18 09:49:46;;;;;;;;;;;11.50;95.90;;;;;;5063095;28;19927;-67
2022/04/18 09:52:16;;;;;;;;;;;11.60;96.30;;;;;;5062837;28;20226;-68
2022/04/18 09:54:44;;;;;;;;;;;11.70;95.70;;;;;;5062730;28;20269;-67
2022/04/18 09:57:11;;;;;;;;;;;11.80;94.80;;;;;;5062299;28;19921;-67
2022/04/18 09:59:38;;;;;;;;;;;11.90;94.90;;;;;;5062675;28;19935;-67
2022/04/18 10:02:04;;;;;;;;;;;12.00;93.60;;;;;;5063108;28;19921;-67
2022/04/18 10:04:34;;;;;;;;;;;12.10;93.60;;;;;;5062973;28;19950;-67
2022/04/18 10:07:01;;;;;;;;;;;12.20;93.60;;;;;;5062442;28;19921;-67
2022/04/18 10:09:28;;;;;;;;;;;12.30;94.00;;;;;;5062615;28;20208;-67
2022/04/18 10:11:54;;;;;;;;;;;12.40;94.00;;;;;;5062928;28;19927;-67
2022/04/18 10:14:21;;;;;;;;;;;12.50;93.20;;;;;;5062495;28;20226;-67
2022/04/18 10:16:47;;;;;;;;;;;12.60;93.40;;;;;;5062302;28;19956;-67
2022/04/18 10:19:21;;;;;;;;;;;12.70;93.00;;;;;;5062832;28;19966;-67
2022/04/18 10:21:53;;;;;;;;;;;12.90;94.00;;;;;;5062697;28;20171;-67
2022/04/18 10:24:34;;;;;;;;;;;13.00;93.80;;;;;;5062523;28;19978;-67
2022/04/18 10:27:19;;;;;;;;;;;13.10;92.50;;;;;;5049941;28;19979;-67
2022/04/18 10:29:47;;;;;;;;;;;13.20;92.40;;;;;;5066221;28;19921;-67
2022/04/18 10:32:18;;;;;;;;;;;13.20;93.20;;;;;;5066309;28;19921;-67
2022/04/18 10:34:49;;;;;;;;;;;13.40;92.90;;;;;;5065935;28;19920;-67
2022/04/18 10:37:17;;;;;;;;;;;13.50;92.40;;;;;;5065800;28;19967;-67
2022/04/18 10:39:44;;;;;;;;;;;13.60;91.20;;;;;;5066122;28;20123;-67
2022/04/18 10:42:21;;;;;;;;;;;13.80;91.60;;;;;;5066169;28;20116;-67
2022/04/18 10:44:58;;;;;;;;;;;13.80;90.70;;;;;;5066129;28;19921;-68
2022/04/18 10:47:24;;;;;;;;;;;14.00;91.70;;;;;;5065423;28;20174;-67
2022/04/18 10:50:06;;;;;;;;;;;14.10;90.20;;;;;;5065810;28;20207;-67
2022/04/18 10:52:34;;;;;;;;;;;14.30;90.60;;;;;;5065596;28;19927;-67
2022/04/18 10:55:00;;;;;;;;;;;14.50;91.50;;;;;;5065623;28;19920;-67
2022/04/18 10:57:28;;;;;;;;;;;14.60;91.70;;;;;;5065322;28;19927;-67
2022/04/18 10:59:54;;;;;;;;;;;14.70;89.90;;;;;;5065562;28;19920;-68
2022/04/18 11:02:36;;;;;;;;;;;14.80;90.40;;;;;;5065515;28;20135;-67
2022/04/18 11:05:02;;;;;;;;;;;14.80;89.40;;;;;;5065425;28;19921;-67
2022/04/18 11:07:39;;;;;;;;;;;14.90;89.50;;;;;;5064982;28;19920;-67
2022/04/18 11:10:18;;;;;;;;;;;15.00;88.30;;;;;;5065442;28;19927;-67
2022/04/18 11:12:45;;;;;;;;;;;15.00;87.90;;;;;;5065638;28;19935;-67
2022/04/18 11:15:11;;;;;;;;;;;14.90;87.90;;;;;;5065082;28;20011;-67
2022/04/18 11:17:38;;;;;;;;;;;15.00;90.10;;;;;;5065210;28;19929;-67
2022/04/18 11:20:20;;;;;;;;;;;15.10;90.00;;;;;;5065314;28;19920;-67
2022/04/18 11:23:01;;;;;;;;;;;15.20;89.50;;;;;;5062703;28;19921;-67
2022/04/18 11:25:49;;;;;;;;;;;15.40;88.60;;;;;;5064476;28;19920;-67
2022/04/18 11:28:16;;;;;;;;;;;15.50;90.10;;;;;;5065236;28;20157;-67
2022/04/18 11:30:43;;;;;;;;;;;15.70;90.20;;;;;;5064990;28;19921;-67
2022/04/18 11:33:09;;;;;;;;;;;15.90;90.20;;;;;;5064959;28;19920;-67
2022/04/18 11:35:36;;;;;;;;;;;16.20;87.50;;;;;;5064948;28;19921;-67
2022/04/18 11:38:25;;;;;;;;;;;16.40;85.60;;;;;;5064375;28;19928;-67
2022/04/18 11:40:53;;;;;;;;;;;16.50;83.70;;;;;;5064909;28;19920;-68
2022/04/18 11:43:20;;;;;;;;;;;16.60;86.30;;;;;;5064078;28;19921;-67
2022/04/18 11:45:47;;;;;;;;;;;16.70;85.90;;;;;;5064313;28;19921;-67
2022/04/18 11:48:13;;;;;;;;;;;16.90;84.30;;;;;;5064812;28;20256;-67
2022/04/18 11:50:41;;;;;;;;;;;17.00;85.00;;;;;;5064836;28;19921;-67
2022/04/18 11:53:09;;;;;;;;;;;17.10;83.90;;;;;;5064643;28;20113;-67
2022/04/18 11:55:41;;;;;;;;;;;17.30;86.50;;;;;;5064163;28;20208;-67
2022/04/18 11:58:10;;;;;;;;;;;17.40;81.70;;;;;;5064460;28;19948;-68
2022/04/18 12:08:55;;;;;;;;;;;17.20;83.20;;;;;;5064318;28;19923;-67
2022/04/18 12:11:22;;;;;;;;;;;17.40;79.60;;;;;;5064441;28;20056;-67
2022/04/18 12:13:50;;;;;;;;;;;17.50;79.40;;;;;;5064209;28;19921;-68
2022/04/18 12:16:17;;;;;;;;;;;17.40;80.00;;;;;;5063917;28;19970;-68
2022/04/18 12:18:44;;;;;;;;;;;17.50;82.10;;;;;;5063972;28;19971;-67
2022/04/18 12:21:11;;;;;;;;;;;17.70;76.60;;;;;;5064124;28;19932;-67
2022/04/18 12:23:38;;;;;;;;;;;17.70;75.50;;;;;;5062967;28;20147;-67
2022/04/18 12:26:09;;;;;;;;;;;17.80;79.50;;;;;;5063856;28;19921;-67
2022/04/18 12:28:37;;;;;;;;;;;18.00;78.20;;;;;;5063964;28;19921;-67
2022/04/18 12:31:07;;;;;;;;;;;18.20;76.70;;;;;;5063868;28;20204;-67
2022/04/18 12:33:34;;;;;;;;;;;18.20;75.10;;;;;;5063676;28;20151;-67
2022/04/18 12:36:00;;;;;;;;;;;18.10;76.20;;;;;;5063724;28;19928;-68
2022/04/18 12:38:30;;;;;;;;;;;18.20;75.50;;;;;;5063718;28;19928;-67
2022/04/18 12:40:58;;;;;;;;;;;17.80;73.70;;;;;;5064066;28;19920;-68
2022/04/18 12:43:27;;;;;;;;;;;17.70;74.50;;;;;;5063623;28;19920;-67
2022/04/18 12:45:56;;;;;;;;;;;17.50;76.10;;;;;;5063245;28;20211;-67
2022/04/18 12:48:25;;;;;;;;;;;17.40;77.40;;;;;;5063724;28;19920;-67
2022/04/18 12:50:52;;;;;;;;;;;17.20;77.30;;;;;;5062834;28;20279;-67
2022/04/18 12:53:19;;;;;;;;;;;17.40;77.30;;;;;;5063620;28;19921;-67
2022/04/18 12:55:46;;;;;;;;;;;17.70;76.20;;;;;;5063207;28;19921;-67
2022/04/18 12:58:18;;;;;;;;;;;17.90;74.50;;;;;;5063630;28;19927;-68
2022/04/18 13:00:48;;;;;;;;;;;18.10;74.40;;;;;;5063247;28;19925;-67
2022/04/18 13:03:16;;;;;;;;;;;18.50;72.40;;;;;;5063551;28;19927;-67
2022/04/18 13:05:45;;;;;;;;;;;18.80;73.10;;;;;;5063114;28;20199;-67
2022/04/18 13:08:12;;;;;;;;;;;19.00;75.00;;;;;;5063542;28;19920;-68
2022/04/18 13:10:39;;;;;;;;;;;19.30;70.30;;;;;;5063204;28;20224;-68
2022/04/18 13:13:06;;;;;;;;;;;19.30;72.30;;;;;;5063158;28;20100;-68
2022/04/18 13:15:33;;;;;;;;;;;19.60;73.90;;;;;;5062883;28;19921;-68
2022/04/18 13:18:03;;;;;;;;;;;19.80;70.60;;;;;;5063317;28;19928;-68
2022/04/18 13:20:30;;;;;;;;;;;20.00;71.30;;;;;;5063130;28;20117;-68
2022/04/18 13:22:58;;;;;;;;;;;20.00;70.60;;;;;;5063037;28;19921;-67
2022/04/18 13:25:25;;;;;;;;;;;19.90;68.00;;;;;;5062686;28;20168;-68
2022/04/18 13:27:53;;;;;;;;;;;19.90;68.50;;;;;;5063702;28;19921;-67
2022/04/18 13:30:20;;;;;;;;;;;19.90;68.50;;;;;;5063366;28;19925;-68
2022/04/18 13:32:47;;;;;;;;;;;19.80;71.60;;;;;;5062971;28;19921;-68
2022/04/18 13:35:13;;;;;;;;;;;20.10;71.40;;;;;;5062903;28;19928;-67
2022/04/18 13:37:40;;;;;;;;;;;20.20;69.00;;;;;;5063308;28;19927;-68
2022/04/18 13:40:08;;;;;;;;;;;20.20;68.40;;;;;;5063155;28;19928;-68
2022/04/18 13:42:35;;;;;;;;;;;20.20;69.60;;;;;;5062963;28;20227;-67
2022/04/18 13:45:01;;;;;;;;;;;20.00;68.20;;;;;;5062872;28;20204;-67
2022/04/18 13:47:28;;;;;;;;;;;19.80;68.70;;;;;;5062840;28;19921;-67
2022/04/18 13:49:55;;;;;;;;;;;19.70;71.50;;;;;;5062850;28;19921;-68
2022/04/18 13:52:21;;;;;;;;;;;19.90;70.20;;;;;;5062712;28;19984;-68
2022/04/18 13:54:48;;;;;;;;;;;20.20;71.50;;;;;;5063020;28;19928;-68
2022/04/18 13:57:16;;;;;;;;;;;20.60;70.20;;;;;;5062673;28;19921;-68
2022/04/18 13:59:43;;;;;;;;;;;20.90;69.30;;;;;;5063003;28;19927;-68
2022/04/18 14:02:09;;;;;;;;;;;21.20;68.50;;;;;;5065419;28;19988;-68
2022/04/18 14:04:36;;;;;;;;;;;20.80;65.90;;;;;;5066918;28;19921;-67
2022/04/18 14:07:02;;;;;;;;;;;20.50;66.00;;;;;;5066250;28;19921;-68
2022/04/18 14:09:30;;;;;;;;;;;20.10;65.20;;;;;;5066452;28;19921;-68
2022/04/18 14:11:57;;;;;;;;;;;19.90;65.60;;;;;;5066468;28;19921;-68
2022/04/18 14:22:37;;;;;;;;;;;20.60;65.70;;;;;;5066392;28;20146;-68
2022/04/18 14:25:04;;;;;;;;;;;20.40;64.50;;;;;;5065597;28;19927;-68
2022/04/18 14:27:30;;;;;;;;;;;20.50;65.20;;;;;;5066135;28;19921;-67
2022/04/18 14:29:58;;;;;;;;;;;20.30;65.40;;;;;;5066351;28;19935;-68
2022/04/18 14:32:25;;;;;;;;;;;20.20;67.80;;;;;;5066205;28;19924;-68
2022/04/18 14:34:51;;;;;;;;;;;20.40;65.70;;;;;;5066351;28;19920;-68
2022/04/18 14:37:20;;;;;;;;;;;20.40;65.50;;;;;;5065988;28;19928;-68
2022/04/18 14:39:48;;;;;;;;;;;20.60;67.20;;;;;;5065887;28;20220;-67
2022/04/18 14:42:15;;;;;;;;;;;20.60;65.90;;;;;;5065691;28;20216;-67
2022/04/18 14:44:41;;;;;;;;;;;20.40;65.50;;;;;;5065988;28;19927;-68
2022/04/18 14:47:09;;;;;;;;;;;20.30;66.80;;;;;;5065870;28;19921;-68
2022/04/18 14:49:37;;;;;;;;;;;20.20;65.30;;;;;;5065859;28;19921;-68
2022/04/18 14:52:04;;;;;;;;;;;20.50;65.90;;;;;;5066045;28;19920;-68
2022/04/18 14:54:31;;;;;;;;;;;20.70;67.00;;;;;;5065905;28;19920;-68
2022/04/18 14:56:58;;;;;;;;;;;21.00;65.20;;;;;;5065789;28;19925;-68
2022/04/18 14:59:24;;;;;;;;;;;21.10;63.50;;;;;;5065564;28;19928;-68
2022/04/18 15:01:51;;;;;;;;;;;21.40;65.50;;;;;;5065762;28;19920;-67